createdAt,value
2019-05-22T00:00:10.458Z,32.00
2019-05-22T00:02:40.641Z,31.60
2019-05-22T00:05:14.592Z,31.20
2019-05-22T00:07:48.016Z,31.00
2019-05-22T00:10:20.317Z,30.90
2019-05-22T00:12:49.676Z,30.90
2019-05-22T00:15:19.957Z,30.90
2019-05-22T00:17:50.078Z,30.70
2019-05-22T00:20:20.289Z,30.80
2019-05-22T00:22:48.741Z,30.80
2019-05-22T00:25:21.047Z,30.90
2019-05-22T00:27:52.952Z,31.30
2019-05-22T00:30:23.090Z,31.50
2019-05-22T00:32:51.772Z,31.00
2019-05-22T00:35:21.934Z,30.80
2019-05-22T00:37:51.657Z,31.10
2019-05-22T00:40:21.742Z,31.50
2019-05-22T00:43:03.354Z,31.70
2019-05-22T00:45:22.542Z,31.90
2019-05-22T00:47:54.722Z,32.20
2019-05-22T00:50:29.706Z,32.60
2019-05-22T00:53:16.806Z,32.80
2019-05-22T00:55:49.098Z,32.60
2019-05-22T00:58:25.374Z,32.10
2019-05-22T01:00:55.750Z,31.50
2019-05-22T01:03:25.931Z,31.00
2019-05-22T01:05:55.378Z,31.00
2019-05-22T01:08:25.434Z,30.70
2019-05-22T01:10:55.630Z,30.70
2019-05-22T01:13:25.844Z,31.00
2019-05-22T01:15:55.362Z,31.20
2019-05-22T01:18:25.421Z,31.70
2019-05-22T01:20:55.345Z,31.40
2019-05-22T01:23:24.897Z,31.30
2019-05-22T01:25:53.378Z,31.20
2019-05-22T01:28:24.582Z,31.30
2019-05-22T01:30:54.847Z,31.30
2019-05-22T01:33:25.492Z,31.60
2019-05-22T01:36:01.623Z,31.90
2019-05-22T01:38:31.270Z,32.40
2019-05-22T01:41:01.588Z,32.70
2019-05-22T01:43:30.299Z,32.50
2019-05-22T01:46:03.090Z,32.90
2019-05-22T01:48:36.313Z,33.10
2019-05-22T01:51:06.849Z,33.40
2019-05-22T01:53:38.534Z,33.50
2019-05-22T01:56:08.279Z,33.50
2019-05-22T01:58:37.505Z,33.60
2019-05-22T02:01:07.664Z,33.60
2019-05-22T02:03:36.802Z,33.00
2019-05-22T02:06:07.207Z,31.60
2019-05-22T02:08:41.758Z,30.50
2019-05-22T02:13:43.430Z,30.10
2019-05-22T02:16:11.856Z,29.90
2019-05-22T02:21:11.285Z,30.90
2019-05-22T02:23:40.762Z,30.50
2019-05-22T02:26:10.852Z,30.60
2019-05-22T02:28:40.635Z,30.60
2019-05-22T02:33:38.879Z,31.00
2019-05-22T02:36:07.848Z,31.10
2019-05-22T02:38:37.723Z,31.10
2019-05-22T02:41:06.134Z,31.00
2019-05-22T02:46:04.547Z,28.80
2019-05-22T02:48:33.024Z,28.90
2019-05-22T02:51:01.966Z,29.70
2019-05-22T02:53:30.859Z,29.70
2019-05-22T02:55:59.370Z,30.30
2019-05-22T02:58:29.474Z,30.90
2019-05-22T03:01:02.893Z,30.40
2019-05-22T03:03:33.973Z,30.50
2019-05-22T03:06:03.957Z,30.40
2019-05-22T03:08:58.472Z,30.30
2019-05-22T03:11:30.096Z,29.80
2019-05-22T03:14:01.845Z,30.40
2019-05-22T03:16:51.848Z,30.10
2019-05-22T03:19:26.453Z,30.20
2019-05-22T03:21:55.431Z,30.10
2019-05-22T03:24:24.589Z,30.20
2019-05-22T03:26:53.603Z,29.90
2019-05-22T03:29:44.054Z,30.50
2019-05-22T03:32:12.633Z,30.70
2019-05-22T03:34:42.511Z,30.00
2019-05-22T03:37:11.007Z,30.30
2019-05-22T03:39:40.861Z,30.40
2019-05-22T03:42:10.989Z,29.90
2019-05-22T03:44:39.471Z,30.00
2019-05-22T03:47:09.489Z,30.50
2019-05-22T03:49:37.919Z,30.10
2019-05-22T03:52:06.834Z,30.70
2019-05-22T03:54:36.445Z,30.20
2019-05-22T03:57:05.723Z,29.90
2019-05-22T03:59:34.770Z,29.80
2019-05-22T04:02:03.737Z,29.20
2019-05-22T04:04:35.434Z,28.90
2019-05-22T04:07:05.730Z,28.60
2019-05-22T04:09:34.790Z,29.10
2019-05-22T04:12:03.322Z,29.50
2019-05-22T04:14:35.699Z,29.10
2019-05-22T04:17:05.980Z,29.70
2019-05-22T04:19:48.758Z,30.00
2019-05-22T04:22:06.138Z,29.60
2019-05-22T04:24:34.680Z,29.80
2019-05-22T04:27:04.995Z,30.40
2019-05-22T04:29:34.999Z,31.20
2019-05-22T04:32:13.680Z,31.50
2019-05-22T04:34:42.795Z,31.50
2019-05-22T04:37:13.543Z,30.90
2019-05-22T04:39:43.662Z,30.50
2019-05-22T04:42:12.620Z,30.90
2019-05-22T04:44:58.730Z,30.60
2019-05-22T04:47:27.139Z,30.60
2019-05-22T04:50:06.884Z,30.90
2019-05-22T04:52:26.135Z,31.10
2019-05-22T04:54:55.130Z,31.30
2019-05-22T04:57:24.154Z,31.30
2019-05-22T04:59:52.619Z,31.10
2019-05-22T05:17:11.688Z,29.00
2019-05-22T05:19:40.518Z,28.80
2019-05-22T05:22:09.574Z,28.90
2019-05-22T05:24:38.178Z,28.60
2019-05-22T05:27:07.613Z,28.50
2019-05-22T05:29:37.122Z,28.30
2019-05-22T05:32:05.994Z,28.60
2019-05-22T05:34:40.841Z,28.80
2019-05-22T05:42:08.844Z,28.80
2019-05-22T05:44:37.651Z,28.30
2019-05-22T05:47:06.502Z,28.30
2019-05-22T05:49:35.326Z,28.90
2019-05-22T05:52:03.986Z,29.00
2019-05-22T05:54:32.430Z,29.50
2019-05-22T05:57:13.174Z,29.00
2019-05-22T05:59:42.438Z,29.70
2019-05-22T06:02:11.327Z,29.60
2019-05-22T06:04:40.254Z,29.00
2019-05-22T06:07:19.226Z,29.70
2019-05-22T06:09:49.891Z,30.10
2019-05-22T06:12:19.302Z,29.90
2019-05-22T06:14:48.091Z,29.70
2019-05-22T06:17:30.318Z,29.20
2019-05-22T06:20:09.992Z,29.60
2019-05-22T06:22:38.604Z,29.40
2019-05-22T06:25:08.482Z,29.40
2019-05-22T06:27:44.582Z,29.40
2019-05-22T06:30:16.893Z,29.80
2019-05-22T06:38:20.874Z,30.40
2019-05-22T06:40:49.367Z,29.90
2019-05-22T06:45:55.601Z,30.20
2019-05-22T06:50:52.454Z,30.60
2019-05-22T06:55:49.748Z,30.80
2019-05-22T06:58:21.422Z,30.30
2019-05-22T07:08:16.792Z,30.10
2019-05-22T07:13:15.063Z,30.40
2019-05-22T07:15:44.107Z,30.70
2019-05-22T07:18:14.125Z,30.50
2019-05-22T07:20:42.717Z,30.90
2019-05-22T07:23:15.868Z,31.00
2019-05-22T07:25:44.991Z,30.90
2019-05-22T07:28:14.411Z,30.80
2019-05-22T07:30:44.987Z,31.30
2019-05-22T07:33:14.060Z,31.90
2019-05-22T07:36:04.880Z,31.50
2019-05-22T07:38:14.117Z,31.40
2019-05-22T07:40:43.177Z,31.60
2019-05-22T07:43:11.619Z,32.90
2019-05-22T07:45:40.626Z,32.90
2019-05-22T07:48:10.497Z,33.00
2019-05-22T07:50:40.666Z,33.20
2019-05-22T07:53:09.582Z,33.20
2019-05-22T07:55:38.016Z,32.90
2019-05-22T07:58:14.610Z,32.90
2019-05-22T08:00:48.797Z,32.60
2019-05-22T08:03:17.818Z,32.80
2019-05-22T08:05:54.030Z,32.40
2019-05-22T08:08:23.975Z,31.40
2019-05-22T08:10:53.752Z,31.40
2019-05-22T08:13:22.891Z,31.60
2019-05-22T08:15:51.761Z,32.00
2019-05-22T08:18:21.018Z,31.40
2019-05-22T08:20:49.647Z,31.00
2019-05-22T08:23:18.549Z,30.80
2019-05-22T08:25:47.212Z,30.40
2019-05-22T08:28:16.271Z,30.00
2019-05-22T08:30:45.559Z,30.10
2019-05-22T08:33:15.818Z,29.10
2019-05-22T08:35:45.047Z,28.90
2019-05-22T08:38:14.195Z,29.70
2019-05-22T08:40:42.656Z,29.30
2019-05-22T08:43:12.220Z,29.10
2019-05-22T08:45:40.869Z,29.00
2019-05-22T08:48:10.054Z,28.10
2019-05-22T08:50:41.083Z,27.40
2019-05-22T08:53:11.080Z,27.10
2019-05-22T08:55:40.950Z,27.50
2019-05-22T08:58:10.191Z,27.60
2019-05-22T09:00:39.091Z,26.70
2019-05-22T09:03:08.358Z,27.30
2019-05-22T09:05:36.887Z,27.90
2019-05-22T09:08:05.868Z,27.50
2019-05-22T09:10:34.684Z,27.40
2019-05-22T09:13:03.167Z,27.30
2019-05-22T09:15:33.382Z,27.90
2019-05-22T09:18:03.564Z,27.50
2019-05-22T09:20:48.132Z,28.60
2019-05-22T09:23:03.759Z,28.80
2019-05-22T09:25:34.938Z,28.80
2019-05-22T09:28:03.623Z,28.40
2019-05-22T09:30:32.383Z,28.60
2019-05-22T09:33:01.491Z,28.10
2019-05-22T09:35:31.298Z,27.90
2019-05-22T09:38:00.065Z,28.50
2019-05-22T09:40:28.998Z,28.90
2019-05-22T09:42:57.601Z,29.20
2019-05-22T09:45:26.104Z,29.20
2019-05-22T09:47:55.017Z,29.50
2019-05-22T09:50:24.280Z,29.10
2019-05-22T09:52:57.701Z,28.10
2019-05-22T09:55:23.611Z,28.30
2019-05-22T09:57:53.014Z,28.00
2019-05-22T10:00:21.851Z,28.20
2019-05-22T10:02:50.487Z,28.50
2019-05-22T10:05:19.487Z,29.00
2019-05-22T10:08:00.063Z,29.30
2019-05-22T10:10:18.685Z,29.20
2019-05-22T10:17:47.737Z,29.10
2019-05-22T10:20:16.408Z,28.50
2019-05-22T10:22:44.971Z,29.00
2019-05-22T10:25:16.988Z,28.40
2019-05-22T10:27:45.636Z,28.50
2019-05-22T10:30:15.871Z,29.20
2019-05-22T10:32:44.368Z,28.80
2019-05-22T10:37:43.275Z,29.50
2019-05-22T10:40:12.445Z,29.60
2019-05-22T10:42:44.646Z,29.70
2019-05-22T10:45:11.644Z,29.50
2019-05-22T10:47:40.317Z,29.70
2019-05-22T10:50:09.038Z,29.60
2019-05-22T10:52:37.754Z,29.40
2019-05-22T10:55:07.822Z,29.50
2019-05-22T10:57:40.474Z,29.30
2019-05-22T11:00:10.169Z,28.80
2019-05-22T11:02:39.332Z,29.10
2019-05-22T11:05:08.191Z,28.90
2019-05-22T11:07:36.725Z,28.50
2019-05-22T11:12:35.352Z,28.60
2019-05-22T11:20:02.222Z,29.30
2019-05-22T11:22:30.720Z,29.30
2019-05-22T11:24:59.343Z,29.60
2019-05-22T11:27:27.969Z,30.00
2019-05-22T11:29:57.171Z,30.40
2019-05-22T11:39:52.431Z,30.00
2019-05-22T11:44:49.665Z,29.60
2019-05-22T11:54:44.284Z,30.20
2019-05-22T11:59:41.616Z,29.50
2019-05-22T12:04:48.025Z,29.90
2019-05-22T12:07:11.066Z,30.10
2019-05-22T12:09:40.068Z,29.10
2019-05-22T12:12:10.885Z,29.50
2019-05-22T12:14:39.362Z,28.90
2019-05-22T12:19:37.687Z,29.50
2019-05-22T12:22:06.099Z,29.30
2019-05-22T12:24:37.182Z,29.10
2019-05-22T12:34:30.443Z,30.10
2019-05-22T12:36:59.170Z,29.90
2019-05-22T12:39:28.341Z,29.40
2019-05-22T12:41:58.298Z,29.40
2019-05-22T12:44:26.970Z,29.70
2019-05-22T12:46:55.770Z,29.50
2019-05-22T12:49:24.517Z,29.70
2019-05-22T12:51:53.209Z,29.80
2019-05-22T12:54:22.075Z,29.90
2019-05-22T12:56:50.677Z,29.50
2019-05-22T12:59:19.651Z,29.90
2019-05-22T13:01:49.513Z,30.10
2019-05-22T13:04:18.692Z,29.10
2019-05-22T13:09:15.850Z,28.70
2019-05-22T13:11:44.413Z,28.80
2019-05-22T13:14:12.906Z,29.00
2019-05-22T13:19:11.577Z,29.70
2019-05-22T13:21:40.670Z,31.20
2019-05-22T13:24:14.845Z,30.90
2019-05-22T13:26:44.127Z,31.10
2019-05-22T13:34:11.288Z,30.90
2019-05-22T13:36:39.714Z,31.40
2019-05-22T13:39:09.784Z,30.60
2019-05-22T13:41:38.327Z,30.40
2019-05-22T13:44:07.838Z,30.00
2019-05-22T13:49:05.300Z,31.10
2019-05-22T13:51:33.862Z,30.70
2019-05-22T13:54:02.408Z,30.40
2019-05-22T13:58:59.619Z,29.80
2019-05-22T14:01:28.234Z,29.70
2019-05-22T14:06:24.931Z,30.00
2019-05-22T14:11:22.513Z,29.00
2019-05-22T14:13:51.971Z,29.10
2019-05-22T14:21:17.590Z,29.50
2019-05-22T14:23:46.119Z,29.70
2019-05-22T14:31:11.729Z,29.40
2019-05-22T14:36:09.475Z,29.70
2019-05-22T14:41:06.690Z,29.10
2019-05-22T14:43:35.409Z,28.90
2019-05-22T14:46:04.818Z,28.80
2019-05-22T14:48:34.096Z,29.40
2019-05-22T14:51:02.554Z,29.80
2019-05-22T14:53:31.060Z,29.60
2019-05-22T14:56:00.337Z,29.60
2019-05-22T14:58:29.139Z,29.50
2019-05-22T15:00:57.691Z,29.40
2019-05-22T15:05:54.949Z,27.20
2019-05-22T15:10:52.323Z,26.50
2019-05-22T15:15:49.454Z,26.70
2019-05-22T15:20:53.595Z,27.50
2019-05-22T15:23:22.311Z,27.40
2019-05-22T15:38:12.732Z,25.30
2019-05-22T15:40:41.714Z,25.60
2019-05-22T15:43:10.221Z,25.10
2019-05-22T15:45:40.325Z,25.20
2019-05-22T15:48:17.830Z,25.70
2019-05-22T15:55:45.679Z,25.00
2019-05-22T16:00:44.088Z,24.30
2019-05-22T16:03:18.726Z,24.30
2019-05-22T16:05:48.290Z,24.80
2019-05-22T16:08:17.077Z,24.50
2019-05-22T16:10:48.819Z,24.50
2019-05-22T16:15:50.103Z,24.70
2019-05-22T16:18:20.441Z,25.50
2019-05-22T16:20:49.435Z,24.30
2019-05-22T16:23:21.303Z,23.80
2019-05-22T16:25:49.977Z,23.70
2019-05-22T16:28:18.888Z,23.30
2019-05-22T16:30:47.944Z,23.30
2019-05-22T16:35:45.424Z,23.80
2019-05-22T16:38:14.221Z,23.90
2019-05-22T16:40:43.577Z,23.70
2019-05-22T16:43:12.893Z,23.90
2019-05-22T16:45:41.388Z,24.10
2019-05-22T16:48:27.896Z,23.90
2019-05-22T16:50:43.082Z,24.00
2019-05-22T16:55:41.636Z,24.70
2019-05-22T17:00:40.575Z,23.90
2019-05-22T17:05:38.206Z,24.00
2019-05-22T17:08:07.701Z,23.60
2019-05-22T17:10:38.987Z,23.70
2019-05-22T17:13:11.996Z,24.10
2019-05-22T17:15:38.538Z,23.60
2019-05-22T17:20:36.812Z,24.30
2019-05-22T17:23:05.701Z,24.60
2019-05-22T17:25:34.296Z,24.70
2019-05-22T17:30:33.244Z,25.10
2019-05-22T17:33:02.012Z,24.30
2019-05-22T17:35:31.307Z,24.00
2019-05-22T17:38:00.237Z,24.40
2019-05-22T17:40:28.905Z,24.10
2019-05-22T17:42:57.557Z,24.00
2019-05-22T17:47:55.598Z,24.20
2019-05-22T17:50:27.623Z,24.50
2019-05-22T17:52:56.790Z,24.50
2019-05-22T17:55:25.850Z,24.00
2019-05-22T17:57:54.774Z,23.80
2019-05-22T18:07:54.515Z,25.10
2019-05-22T18:10:23.742Z,25.00
2019-05-22T18:12:52.316Z,24.70
2019-05-22T18:15:21.632Z,25.60
2019-05-22T18:20:20.166Z,25.60
2019-05-22T18:22:48.835Z,25.20
2019-05-22T18:25:18.042Z,25.90
2019-05-22T18:27:49.678Z,25.10
2019-05-22T18:30:18.247Z,25.20
2019-05-22T18:32:46.829Z,24.80
2019-05-22T18:37:43.889Z,24.90
2019-05-22T18:40:12.642Z,25.20
2019-05-22T18:42:41.296Z,25.30
2019-05-22T18:45:11.185Z,25.30
2019-05-22T18:47:39.769Z,25.40
2019-05-22T18:50:08.363Z,25.50
2019-05-22T18:52:41.473Z,26.40
2019-05-22T18:55:08.916Z,26.70
2019-05-22T18:57:37.890Z,27.10
2019-05-22T19:00:09.356Z,26.90
2019-05-22T19:02:38.181Z,27.40
2019-05-22T19:05:07.167Z,27.80
2019-05-22T19:07:35.948Z,27.30
2019-05-22T19:10:09.143Z,26.80
2019-05-22T19:12:37.949Z,26.60
2019-05-22T19:15:11.166Z,26.80
2019-05-22T19:17:40.280Z,26.10
2019-05-22T19:20:09.051Z,25.90
2019-05-22T19:22:38.237Z,26.00
2019-05-22T19:25:13.278Z,26.50
2019-05-22T19:27:46.985Z,26.50
2019-05-22T19:30:16.606Z,26.60
2019-05-22T19:32:45.814Z,26.70
2019-05-22T19:35:16.396Z,26.90
2019-05-22T19:37:46.340Z,26.90
2019-05-22T19:40:16.147Z,26.50
2019-05-22T19:42:47.451Z,27.00
2019-05-22T19:45:17.265Z,27.00
2019-05-22T19:47:54.869Z,27.30
2019-05-22T19:50:25.828Z,26.90
2019-05-22T19:52:57.093Z,26.90
2019-05-22T19:55:47.320Z,26.70
2019-05-22T19:58:22.154Z,26.80
2019-05-22T20:00:51.854Z,26.70
2019-05-22T20:03:22.654Z,26.60
2019-05-22T20:05:53.232Z,27.00
2019-05-22T20:08:22.755Z,26.70
2019-05-22T20:10:52.927Z,26.90
2019-05-22T20:13:24.139Z,27.00
2019-05-22T20:15:53.867Z,27.10
2019-05-22T20:18:23.917Z,26.90
2019-05-22T20:20:54.042Z,26.60
2019-05-22T20:23:35.344Z,26.90
2019-05-22T20:25:53.440Z,26.60
2019-05-22T20:28:23.928Z,26.50
2019-05-22T20:30:54.489Z,24.90
2019-05-22T20:33:26.391Z,25.20
2019-05-22T20:35:53.550Z,25.50
2019-05-22T20:38:23.728Z,25.70
2019-05-22T20:40:52.983Z,25.60
2019-05-22T20:43:24.021Z,25.70
2019-05-22T20:45:53.763Z,26.10
2019-05-22T20:48:33.618Z,26.70
2019-05-22T20:51:04.537Z,26.60
2019-05-22T20:53:52.383Z,26.50
2019-05-22T20:56:08.047Z,26.30
2019-05-22T20:58:36.705Z,26.40
2019-05-22T21:01:05.784Z,26.30
2019-05-22T21:03:34.883Z,27.20
2019-05-22T21:06:05.718Z,26.70
2019-05-22T21:08:34.243Z,26.50
2019-05-22T21:11:03.153Z,26.50
2019-05-22T21:13:32.078Z,26.90
2019-05-22T21:16:01.648Z,26.30
2019-05-22T21:18:36.881Z,27.40
2019-05-22T21:21:06.591Z,27.70
2019-05-22T21:23:35.795Z,27.70
2019-05-22T21:26:04.430Z,27.10
2019-05-22T21:28:33.036Z,27.00
2019-05-22T21:31:02.184Z,27.40
2019-05-22T21:33:30.728Z,27.60
2019-05-22T21:36:00.273Z,27.40
2019-05-22T21:38:30.574Z,27.70
2019-05-22T21:40:59.545Z,27.00
2019-05-22T21:43:28.340Z,26.50
2019-05-22T21:45:57.397Z,26.60
2019-05-22T21:48:26.920Z,26.10
2019-05-22T21:50:56.389Z,26.70
2019-05-22T21:53:25.211Z,26.40
2019-05-22T21:56:04.049Z,27.00
2019-05-22T21:58:25.517Z,27.90
2019-05-22T22:00:58.864Z,27.20
2019-05-22T22:03:38.855Z,27.00
2019-05-22T22:06:08.969Z,27.30
2019-05-22T22:08:37.540Z,27.00
2019-05-22T22:11:06.019Z,27.20
2019-05-22T22:13:34.974Z,27.40
2019-05-22T22:16:03.576Z,27.40
2019-05-22T22:18:33.070Z,27.50
2019-05-22T22:21:02.279Z,26.40
2019-05-22T22:23:31.032Z,26.90
2019-05-22T22:26:00.309Z,27.50
2019-05-22T22:28:29.857Z,27.10
2019-05-22T22:31:00.318Z,27.30
2019-05-22T22:33:29.669Z,27.30
2019-05-22T22:35:58.423Z,27.20
2019-05-22T22:38:28.044Z,27.80
2019-05-22T22:40:57.304Z,27.00
2019-05-22T22:43:28.347Z,27.40
2019-05-22T22:46:14.887Z,27.30
2019-05-22T22:48:45.225Z,27.00
2019-05-22T22:51:15.796Z,27.10
2019-05-22T22:53:45.744Z,27.40
2019-05-22T22:56:16.079Z,27.10
2019-05-22T22:58:44.763Z,26.90
2019-05-22T23:01:17.757Z,26.80
2019-05-22T23:03:47.288Z,25.40
2019-05-22T23:06:16.053Z,26.00
2019-05-22T23:08:45.269Z,25.60
2019-05-22T23:11:15.605Z,25.80
2019-05-22T23:13:45.656Z,26.00
2019-05-22T23:16:15.096Z,25.00
2019-05-22T23:18:47.292Z,25.00
2019-05-22T23:21:16.402Z,24.90
2019-05-22T23:23:44.346Z,25.00
2019-05-22T23:26:13.301Z,25.60
2019-05-22T23:28:42.313Z,25.60
2019-05-22T23:31:12.060Z,25.10
2019-05-22T23:33:41.073Z,25.40
2019-05-22T23:36:11.319Z,24.80
2019-05-22T23:38:40.314Z,24.30
2019-05-22T23:41:08.998Z,24.90
2019-05-22T23:43:37.517Z,24.50
2019-05-22T23:48:35.058Z,23.30
2019-05-22T23:51:03.955Z,23.30
2019-05-22T23:53:33.007Z,23.70
2019-05-22T23:56:01.940Z,23.90
2019-05-22T23:58:32.802Z,24.60
